createdAt,value
2023-05-05T00:01:03.034Z,21.40
2023-05-05T00:03:31.267Z,21.70
2023-05-05T00:06:00.696Z,21.80
2023-05-05T00:08:29.416Z,21.70
2023-05-05T00:10:57.606Z,22.00
2023-05-05T00:13:25.995Z,21.90
2023-05-05T00:15:55.109Z,21.90
2023-05-05T00:18:23.310Z,21.90
2023-05-05T00:20:51.498Z,22.00
2023-05-05T00:23:21.103Z,21.60
2023-05-05T00:25:49.186Z,22.30
2023-05-05T00:28:17.180Z,22.10
2023-05-05T00:30:45.303Z,22.20
2023-05-05T00:33:13.326Z,22.70
2023-05-05T00:35:41.622Z,22.60
2023-05-05T00:38:10.209Z,22.60
2023-05-05T00:40:39.538Z,23.20
2023-05-05T00:43:08.156Z,23.20
2023-05-05T00:45:37.287Z,23.30
2023-05-05T00:48:07.004Z,23.30
2023-05-05T00:50:35.573Z,23.20
2023-05-05T00:53:05.879Z,23.30
2023-05-05T00:55:34.977Z,23.40
2023-05-05T00:58:05.082Z,23.50
2023-05-05T01:00:33.282Z,23.50
2023-05-05T01:03:01.617Z,23.40
2023-05-05T01:05:39.129Z,23.50
2023-05-05T01:08:19.358Z,23.60
2023-05-05T01:10:56.432Z,23.70
2023-05-05T01:13:39.528Z,23.40
2023-05-05T01:16:15.876Z,23.50
2023-05-05T01:18:52.591Z,23.60
2023-05-05T01:21:28.026Z,23.30
2023-05-05T01:24:25.286Z,23.50
2023-05-05T01:27:06.581Z,23.60
2023-05-05T01:30:03.279Z,23.50
2023-05-05T01:32:36.864Z,23.30
2023-05-05T01:35:14.901Z,23.70
2023-05-05T01:37:50.310Z,23.90
2023-05-05T01:40:23.867Z,23.70
2023-05-05T01:42:52.394Z,23.20
2023-05-05T01:45:26.013Z,23.90
2023-05-05T01:47:57.309Z,23.60
2023-05-05T01:50:28.771Z,23.80
2023-05-05T01:52:58.618Z,23.80
2023-05-05T01:55:28.448Z,23.80
2023-05-05T01:57:58.660Z,23.50
2023-05-05T02:00:27.479Z,23.90
2023-05-05T02:02:58.137Z,23.90
2023-05-05T02:05:27.647Z,24.00
2023-05-05T02:07:59.949Z,23.80
2023-05-05T02:10:29.910Z,23.90
2023-05-05T02:13:00.088Z,24.30
2023-05-05T02:15:30.036Z,24.70
2023-05-05T02:18:01.267Z,24.40
2023-05-05T02:20:32.230Z,24.20
2023-05-05T02:23:00.373Z,24.20
2023-05-05T02:25:36.933Z,24.40
2023-05-05T02:28:06.432Z,24.40
2023-05-05T02:30:37.597Z,24.50
2023-05-05T02:33:11.356Z,24.60
2023-05-05T02:35:41.947Z,24.60
2023-05-05T02:38:14.713Z,23.60
2023-05-05T02:40:44.558Z,24.80
2023-05-05T02:43:17.730Z,24.80
2023-05-05T02:45:46.205Z,24.80
2023-05-05T02:48:15.981Z,24.70
2023-05-05T02:50:44.024Z,24.80
2023-05-05T02:53:12.166Z,24.80
2023-05-05T02:55:46.566Z,24.80
2023-05-05T02:58:23.208Z,24.80
2023-05-05T03:00:58.645Z,24.90
2023-05-05T03:03:39.166Z,25.00
2023-05-05T03:06:15.051Z,24.90
2023-05-05T03:08:51.575Z,25.00
2023-05-05T03:11:28.944Z,26.00
2023-05-05T03:14:07.136Z,25.20
2023-05-05T03:16:37.383Z,25.10
2023-05-05T03:19:10.058Z,25.20
2023-05-05T03:21:38.414Z,25.00
2023-05-05T03:24:15.274Z,24.60
2023-05-05T03:26:44.254Z,24.80
2023-05-05T03:29:12.195Z,25.40
2023-05-05T03:31:40.524Z,25.70
2023-05-05T03:34:10.123Z,25.70
2023-05-05T03:36:39.759Z,25.00
2023-05-05T03:39:08.138Z,25.40
2023-05-05T03:41:36.322Z,26.00
2023-05-05T03:44:05.018Z,25.30
2023-05-05T03:46:32.969Z,25.40
2023-05-05T03:49:00.956Z,25.50
2023-05-05T03:51:31.463Z,25.60
2023-05-05T03:53:59.532Z,25.90
2023-05-05T03:56:27.568Z,25.50
2023-05-05T03:58:55.664Z,26.00
2023-05-05T04:01:24.211Z,25.70
2023-05-05T04:03:52.559Z,25.80
2023-05-05T04:06:20.813Z,25.80
2023-05-05T04:08:50.246Z,25.90
2023-05-05T04:11:18.280Z,25.80
2023-05-05T04:13:47.015Z,25.90
2023-05-05T04:16:15.111Z,25.70
2023-05-05T04:18:43.104Z,26.00
2023-05-05T04:21:11.175Z,25.90
2023-05-05T04:23:39.166Z,25.90
2023-05-05T04:26:08.556Z,25.70
2023-05-05T04:28:36.582Z,26.00
2023-05-05T04:31:05.296Z,26.00
2023-05-05T04:33:33.337Z,25.40
2023-05-05T04:36:01.324Z,26.00
2023-05-05T04:38:29.443Z,26.30
2023-05-05T04:40:57.398Z,26.40
2023-05-05T04:43:26.705Z,25.70
2023-05-05T04:45:55.082Z,26.10
2023-05-05T04:48:23.173Z,25.70
2023-05-05T04:50:51.231Z,26.10
2023-05-05T04:53:19.306Z,26.30
2023-05-05T04:55:47.406Z,26.10
2023-05-05T04:58:15.452Z,26.10
2023-05-05T05:00:44.818Z,26.00
2023-05-05T05:03:12.824Z,25.70
2023-05-05T05:05:40.864Z,26.40
2023-05-05T05:08:08.876Z,26.30
2023-05-05T05:10:37.234Z,26.20
2023-05-05T05:13:05.370Z,26.70
2023-05-05T05:15:33.449Z,26.10
2023-05-05T05:18:02.859Z,25.90
2023-05-05T05:20:31.644Z,25.90
2023-05-05T05:23:02.001Z,25.80
2023-05-05T05:25:29.993Z,25.50
2023-05-05T05:28:08.960Z,25.00
2023-05-05T05:30:38.088Z,25.20
2023-05-05T05:33:07.883Z,24.80
2023-05-05T05:35:35.999Z,25.30
2023-05-05T05:38:03.977Z,25.30
2023-05-05T05:40:32.244Z,25.30
2023-05-05T05:43:00.220Z,25.40
2023-05-05T05:45:28.218Z,25.60
2023-05-05T05:47:56.340Z,25.40
2023-05-05T05:50:28.453Z,25.60
2023-05-05T05:52:56.538Z,25.50
2023-05-05T05:55:24.543Z,25.40
2023-05-05T05:57:52.533Z,25.00
2023-05-05T06:00:21.084Z,25.70
2023-05-05T06:02:49.244Z,25.50
2023-05-05T06:05:17.617Z,25.20
2023-05-05T06:07:46.942Z,25.50
2023-05-05T06:10:26.406Z,25.20
2023-05-05T06:12:55.817Z,24.50
2023-05-05T06:15:25.369Z,25.40
2023-05-05T06:17:53.483Z,25.00
2023-05-05T06:20:21.586Z,25.50
2023-05-05T06:22:50.984Z,25.00
2023-05-05T06:25:19.041Z,25.30
2023-05-05T06:27:47.115Z,24.60
2023-05-05T06:30:15.797Z,24.50
2023-05-05T06:32:43.817Z,25.20
2023-05-05T06:35:11.979Z,25.30
2023-05-05T06:37:40.016Z,25.30
2023-05-05T06:40:11.451Z,24.90
2023-05-05T06:42:39.436Z,24.80
2023-05-05T06:45:09.135Z,24.10
2023-05-05T06:47:37.451Z,24.70
2023-05-05T06:50:07.133Z,23.90
2023-05-05T06:52:35.352Z,24.80
2023-05-05T06:55:03.726Z,24.80
2023-05-05T06:57:33.020Z,24.60
2023-05-05T07:00:01.190Z,24.70
2023-05-05T07:02:29.174Z,24.50
2023-05-05T07:04:57.168Z,23.90
2023-05-05T07:07:25.235Z,24.70
2023-05-05T07:09:53.323Z,24.40
2023-05-05T07:12:21.784Z,24.50
2023-05-05T07:14:51.381Z,24.50
2023-05-05T07:17:19.643Z,23.50
2023-05-05T07:19:48.310Z,24.50
2023-05-05T07:22:16.303Z,24.60
2023-05-05T07:24:44.247Z,24.30
2023-05-05T07:27:12.346Z,24.70
2023-05-05T07:29:40.430Z,24.70
2023-05-05T07:32:09.884Z,24.50
2023-05-05T07:34:38.149Z,23.80
2023-05-05T07:37:06.238Z,24.80
2023-05-05T07:39:34.787Z,24.80
2023-05-05T07:42:02.835Z,24.70
2023-05-05T07:44:31.686Z,24.80
2023-05-05T07:46:59.875Z,24.80
2023-05-05T07:49:29.255Z,25.50
2023-05-05T07:51:57.303Z,24.40
2023-05-05T07:54:26.922Z,25.10
2023-05-05T07:56:54.954Z,25.20
2023-05-05T07:59:22.972Z,25.10
2023-05-05T08:01:52.060Z,25.20
2023-05-05T08:04:21.131Z,24.20
2023-05-05T08:06:50.461Z,24.90
2023-05-05T08:09:18.471Z,25.00
2023-05-05T08:11:46.424Z,24.90
2023-05-05T08:14:15.135Z,24.50
2023-05-05T08:16:43.284Z,24.00
2023-05-05T08:19:25.078Z,24.70
2023-05-05T08:22:00.024Z,24.70
2023-05-05T08:24:29.337Z,24.90
2023-05-05T08:26:57.605Z,24.80
2023-05-05T08:29:25.881Z,24.70
2023-05-05T08:31:54.282Z,24.40
2023-05-05T08:34:22.415Z,23.60
2023-05-05T08:36:50.856Z,24.20
2023-05-05T08:39:20.273Z,24.20
2023-05-05T08:41:48.421Z,24.20
2023-05-05T08:44:16.646Z,24.10
2023-05-05T08:46:44.821Z,24.00
2023-05-05T08:49:17.070Z,24.30
2023-05-05T08:51:46.686Z,24.40
2023-05-05T08:54:20.787Z,24.50
2023-05-05T08:56:51.797Z,24.60
2023-05-05T08:59:24.071Z,24.40
2023-05-05T09:01:54.169Z,24.50
2023-05-05T09:04:22.794Z,24.10
2023-05-05T09:06:51.012Z,24.10
2023-05-05T09:09:21.195Z,24.20
2023-05-05T09:11:49.402Z,24.60
2023-05-05T09:14:17.360Z,24.40
2023-05-05T09:16:45.504Z,24.80
2023-05-05T09:19:13.544Z,25.10
2023-05-05T09:21:48.734Z,25.10
2023-05-05T09:24:16.773Z,24.90
2023-05-05T09:26:48.024Z,24.20
2023-05-05T09:29:20.308Z,24.80
2023-05-05T09:32:05.406Z,24.60
2023-05-05T09:34:35.808Z,25.00
2023-05-05T09:37:04.397Z,24.60
2023-05-05T09:39:32.542Z,24.90
2023-05-05T09:42:03.496Z,25.20
2023-05-05T09:44:36.269Z,24.80
2023-05-05T09:47:09.394Z,24.70
2023-05-05T09:49:43.164Z,24.80
2023-05-05T09:52:15.756Z,24.70
2023-05-05T09:54:44.811Z,24.50
2023-05-05T09:57:30.231Z,24.30
2023-05-05T10:00:00.321Z,24.20
2023-05-05T10:02:34.004Z,24.10
2023-05-05T10:05:13.993Z,24.30
2023-05-05T10:07:44.014Z,24.20
2023-05-05T10:10:13.943Z,24.10
2023-05-05T10:12:43.827Z,23.70
2023-05-05T10:15:13.710Z,23.60
2023-05-05T10:18:02.270Z,23.40
2023-05-05T10:20:36.143Z,23.00
2023-05-05T10:23:09.155Z,22.70
2023-05-05T10:25:43.661Z,22.40
2023-05-05T10:28:22.115Z,22.50
2023-05-05T10:30:53.436Z,22.70
2023-05-05T10:33:32.010Z,22.70
2023-05-05T10:36:05.199Z,22.40
2023-05-05T10:38:33.916Z,22.70
2023-05-05T10:41:02.925Z,23.00
2023-05-05T10:43:32.898Z,23.30
2023-05-05T10:46:01.463Z,23.40
2023-05-05T10:48:37.353Z,23.10
2023-05-05T10:51:35.352Z,22.50
2023-05-05T10:54:14.747Z,22.80
2023-05-05T10:56:44.039Z,23.00
2023-05-05T10:59:43.426Z,23.20
2023-05-05T11:02:25.989Z,22.80
2023-05-05T11:05:14.921Z,21.70
2023-05-05T11:07:43.627Z,21.30
2023-05-05T11:10:13.799Z,21.30
2023-05-05T11:13:18.614Z,21.30
2023-05-05T11:15:49.170Z,22.30
2023-05-05T11:18:36.379Z,23.00
2023-05-05T11:21:16.510Z,23.80
2023-05-05T11:23:50.290Z,24.10
2023-05-05T11:26:20.395Z,24.20
2023-05-05T11:29:03.291Z,25.00
2023-05-05T11:31:33.399Z,24.00
2023-05-05T11:34:28.444Z,24.20
2023-05-05T11:37:04.028Z,24.20
2023-05-05T11:39:49.424Z,24.00
2023-05-05T11:42:26.096Z,24.00
2023-05-05T11:44:55.105Z,23.80
2023-05-05T11:47:32.206Z,23.80
2023-05-05T11:50:17.168Z,23.90
2023-05-05T11:52:45.483Z,23.70
2023-05-05T11:55:13.507Z,23.60
2023-05-05T11:57:41.558Z,23.70
2023-05-05T12:00:10.962Z,23.80
2023-05-05T12:02:40.625Z,24.00
2023-05-05T12:05:09.164Z,23.80
2023-05-05T12:07:37.303Z,23.80
2023-05-05T12:10:06.467Z,24.00
2023-05-05T12:12:37.275Z,23.60
2023-05-05T12:15:06.836Z,23.60
2023-05-05T12:17:46.012Z,23.90
2023-05-05T12:20:14.580Z,23.70
2023-05-05T12:22:43.690Z,23.60
2023-05-05T12:25:12.073Z,23.70
2023-05-05T12:27:41.178Z,23.60
2023-05-05T12:30:18.458Z,23.60
2023-05-05T12:32:47.900Z,23.80
2023-05-05T12:35:16.929Z,23.80
2023-05-05T12:37:45.393Z,23.70
2023-05-05T12:40:48.608Z,23.90
2023-05-05T12:43:28.532Z,23.40
2023-05-05T12:46:08.614Z,23.70
2023-05-05T12:48:40.264Z,23.90
2023-05-05T12:51:17.181Z,24.10
2023-05-05T12:53:45.563Z,23.80
2023-05-05T12:56:47.574Z,23.80
2023-05-05T12:59:30.791Z,23.40
2023-05-05T13:02:01.289Z,23.60
2023-05-05T13:04:31.052Z,23.70
2023-05-05T13:07:11.655Z,23.80
2023-05-05T13:09:39.924Z,23.50
2023-05-05T13:12:11.525Z,23.80
2023-05-05T13:14:39.992Z,23.70
2023-05-05T13:17:07.995Z,23.70
2023-05-05T13:19:41.891Z,23.80
2023-05-05T13:22:10.785Z,23.70
2023-05-05T13:24:50.563Z,23.80
2023-05-05T13:27:20.435Z,23.60
2023-05-05T13:29:48.429Z,23.30
2023-05-05T13:32:16.530Z,23.40
2023-05-05T13:34:45.841Z,23.40
2023-05-05T13:37:13.836Z,23.50
2023-05-05T13:39:41.901Z,23.70
2023-05-05T13:42:09.897Z,23.70
2023-05-05T13:44:37.861Z,23.40
2023-05-05T13:47:06.059Z,23.40
2023-05-05T13:49:34.264Z,22.90
2023-05-05T13:52:03.652Z,23.60
2023-05-05T13:54:31.714Z,23.50
2023-05-05T13:56:59.986Z,24.00
2023-05-05T13:59:28.194Z,23.80
2023-05-05T14:01:56.284Z,23.80
2023-05-05T14:04:24.342Z,23.80
2023-05-05T14:06:53.260Z,23.90
2023-05-05T14:09:22.891Z,23.80
2023-05-05T14:11:50.885Z,24.10
2023-05-05T14:14:19.599Z,23.90
2023-05-05T14:16:50.034Z,23.80
2023-05-05T14:19:18.371Z,23.50
2023-05-05T14:21:46.458Z,23.80
2023-05-05T14:24:14.401Z,23.90
2023-05-05T14:26:43.706Z,24.10
2023-05-05T14:29:11.683Z,24.20
2023-05-05T14:31:39.663Z,24.10
2023-05-05T14:34:07.681Z,24.00
2023-05-05T14:36:35.682Z,24.00
2023-05-05T14:39:03.730Z,23.90
2023-05-05T14:41:31.754Z,23.60
2023-05-05T14:44:01.063Z,23.80
2023-05-05T14:46:29.165Z,23.80
2023-05-05T14:48:57.682Z,23.90
2023-05-05T14:51:25.774Z,24.10
2023-05-05T14:53:53.736Z,24.00
2023-05-05T14:56:22.567Z,24.20
2023-05-05T14:58:50.514Z,24.30
2023-05-05T15:01:20.552Z,24.60
2023-05-05T15:03:48.629Z,24.60
2023-05-05T15:06:16.839Z,24.60
2023-05-05T15:08:44.795Z,24.70
2023-05-05T15:11:13.692Z,24.80
2023-05-05T15:13:42.080Z,24.90
2023-05-05T15:16:10.156Z,24.50
2023-05-05T15:18:39.476Z,25.00
2023-05-05T15:21:07.606Z,24.90
2023-05-05T15:23:35.689Z,24.90
2023-05-05T15:26:04.278Z,24.90
2023-05-05T15:28:32.384Z,24.40
2023-05-05T15:31:02.486Z,24.80
2023-05-05T15:33:31.336Z,25.00
2023-05-05T15:36:00.838Z,25.30
2023-05-05T15:38:29.838Z,24.50
2023-05-05T15:40:57.807Z,24.80
2023-05-05T15:43:26.053Z,24.50
2023-05-05T15:45:55.085Z,24.70
2023-05-05T15:48:23.090Z,25.00
2023-05-05T15:50:51.078Z,24.40
2023-05-05T15:53:20.489Z,25.10
2023-05-05T15:55:48.504Z,24.70
2023-05-05T15:58:16.418Z,24.60
2023-05-05T16:00:44.447Z,24.50
2023-05-05T16:03:12.594Z,24.40
2023-05-05T16:05:41.661Z,24.30
2023-05-05T16:08:10.767Z,24.30
2023-05-05T16:10:40.167Z,24.50
2023-05-05T16:13:08.252Z,24.60
2023-05-05T16:15:36.379Z,24.70
2023-05-05T16:18:04.648Z,24.40
2023-05-05T16:20:32.762Z,24.70
2023-05-05T16:23:01.137Z,24.50
2023-05-05T16:25:29.153Z,24.40
2023-05-05T16:28:00.005Z,24.30
2023-05-05T16:30:29.203Z,24.70
2023-05-05T16:32:57.254Z,24.40
2023-05-05T16:35:25.461Z,24.10
2023-05-05T16:37:53.468Z,24.40
2023-05-05T16:40:21.519Z,24.40
2023-05-05T16:42:49.495Z,24.60
2023-05-05T16:45:18.996Z,24.60
2023-05-05T16:47:47.067Z,24.80
2023-05-05T16:50:16.464Z,24.60
2023-05-05T16:52:44.472Z,24.60
2023-05-05T16:55:12.562Z,25.20
2023-05-05T16:57:40.649Z,25.10
2023-05-05T17:00:10.239Z,25.30
2023-05-05T17:02:39.616Z,25.30
2023-05-05T17:05:08.656Z,25.40
2023-05-05T17:07:36.983Z,25.50
2023-05-05T17:10:06.290Z,26.20
2023-05-05T17:12:34.294Z,25.70
2023-05-05T17:15:02.320Z,25.00
2023-05-05T17:17:30.304Z,26.00
2023-05-05T17:19:59.733Z,26.30
2023-05-05T17:22:27.973Z,25.50
2023-05-05T17:24:56.113Z,26.20
2023-05-05T17:27:24.220Z,26.50
2023-05-05T17:29:52.236Z,26.50
2023-05-05T17:32:20.199Z,26.50
2023-05-05T17:34:48.236Z,26.60
2023-05-05T17:37:17.477Z,26.60
2023-05-05T17:39:45.428Z,26.30
2023-05-05T17:42:13.372Z,26.60
2023-05-05T17:44:41.294Z,26.30
2023-05-05T17:47:10.464Z,26.70
2023-05-05T17:49:38.391Z,26.90
2023-05-05T17:52:06.484Z,27.20
2023-05-05T17:54:35.875Z,27.10
2023-05-05T17:57:04.145Z,27.20
2023-05-05T17:59:32.700Z,27.00
2023-05-05T18:02:00.782Z,27.20
2023-05-05T18:04:28.848Z,26.90
2023-05-05T18:06:56.857Z,27.30
2023-05-05T18:09:24.992Z,27.30
2023-05-05T18:11:55.462Z,26.80
2023-05-05T18:14:23.796Z,26.80
2023-05-05T18:16:52.690Z,27.30
2023-05-05T18:19:22.996Z,27.30
2023-05-05T18:21:54.144Z,27.10
2023-05-05T18:24:22.129Z,27.20
2023-05-05T18:26:51.996Z,27.00
2023-05-05T18:29:22.557Z,26.70
2023-05-05T18:31:54.655Z,27.10
2023-05-05T18:34:22.983Z,26.70
2023-05-05T18:36:54.102Z,27.20
2023-05-05T18:39:22.103Z,26.90
2023-05-05T18:41:50.174Z,27.00
2023-05-05T18:44:19.257Z,27.00
2023-05-05T18:46:49.010Z,27.30
2023-05-05T18:49:17.209Z,27.10
2023-05-05T18:51:45.292Z,26.90
2023-05-05T18:54:13.323Z,26.90
2023-05-05T18:56:41.354Z,27.20
2023-05-05T18:59:09.345Z,27.10
2023-05-05T19:01:37.300Z,27.10
2023-05-05T19:04:15.583Z,27.00
2023-05-05T19:06:52.526Z,26.90
2023-05-05T19:09:20.855Z,27.20
2023-05-05T19:11:48.914Z,27.30
2023-05-05T19:14:17.673Z,27.30
2023-05-05T19:16:45.841Z,27.00
2023-05-05T19:19:15.214Z,26.90
2023-05-05T19:21:43.298Z,27.10
2023-05-05T19:24:11.523Z,26.90
2023-05-05T19:26:39.561Z,27.00
2023-05-05T19:29:07.756Z,27.00
2023-05-05T19:31:35.763Z,27.30
2023-05-05T19:34:05.974Z,27.40
2023-05-05T19:36:35.741Z,27.50
2023-05-05T19:39:05.682Z,27.40
2023-05-05T19:41:35.162Z,27.40
2023-05-05T19:44:03.263Z,27.20
2023-05-05T19:46:31.326Z,27.60
2023-05-05T19:48:59.269Z,27.40
2023-05-05T19:51:27.380Z,27.00
2023-05-05T19:53:56.766Z,27.60
2023-05-05T19:56:24.814Z,27.40
2023-05-05T19:58:58.885Z,27.60
2023-05-05T20:01:28.205Z,27.60
2023-05-05T20:03:57.646Z,27.20
2023-05-05T20:06:26.882Z,27.50
2023-05-05T20:08:56.414Z,27.50
2023-05-05T20:11:26.047Z,27.30
2023-05-05T20:13:53.999Z,27.60
2023-05-05T20:16:22.507Z,27.70
2023-05-05T20:18:50.941Z,27.40
2023-05-05T20:21:19.290Z,27.60
2023-05-05T20:23:48.340Z,27.50
2023-05-05T20:26:17.801Z,27.70
2023-05-05T20:28:46.013Z,27.70
2023-05-05T20:31:15.884Z,27.70
2023-05-05T20:33:43.942Z,27.40
2023-05-05T20:36:12.116Z,27.30
2023-05-05T20:38:40.137Z,27.30
2023-05-05T20:41:08.270Z,27.70
2023-05-05T20:43:37.990Z,28.30
2023-05-05T20:46:06.082Z,27.00
2023-05-05T20:48:34.003Z,27.70
2023-05-05T20:51:04.742Z,27.40
2023-05-05T20:53:33.303Z,28.00
2023-05-05T20:56:01.409Z,28.20
2023-05-05T20:58:30.956Z,28.40
2023-05-05T21:01:00.280Z,28.80
2023-05-05T21:03:29.639Z,29.10
2023-05-05T21:05:57.776Z,29.10
2023-05-05T21:08:25.716Z,29.50
2023-05-05T21:10:53.843Z,29.20
2023-05-05T21:13:21.887Z,28.90
2023-05-05T21:15:51.093Z,29.60
2023-05-05T21:18:20.649Z,29.10
2023-05-05T21:20:48.635Z,29.70
2023-05-05T21:23:16.671Z,29.30
2023-05-05T21:25:44.851Z,29.70
2023-05-05T21:28:12.846Z,29.60
2023-05-05T21:30:40.877Z,29.50
2023-05-05T21:33:08.909Z,29.10
2023-05-05T21:35:38.678Z,29.70
2023-05-05T21:38:06.859Z,29.30
2023-05-05T21:40:35.056Z,29.30
2023-05-05T21:43:03.061Z,29.60
2023-05-05T21:45:31.289Z,29.60
2023-05-05T21:47:59.320Z,29.90
2023-05-05T21:50:28.910Z,29.60
2023-05-05T21:52:58.903Z,30.00
2023-05-05T21:55:26.922Z,30.00
2023-05-05T21:57:54.901Z,29.90
2023-05-05T22:00:23.081Z,29.90
2023-05-05T22:02:51.258Z,29.60
2023-05-05T22:05:19.510Z,30.00
2023-05-05T22:07:47.552Z,29.70
2023-05-05T22:10:17.124Z,29.80
2023-05-05T22:12:45.290Z,30.50
2023-05-05T22:15:13.256Z,29.40
2023-05-05T22:17:41.962Z,29.60
2023-05-05T22:20:11.228Z,29.80
2023-05-05T22:22:39.620Z,30.20
2023-05-05T22:25:08.881Z,30.50
2023-05-05T22:27:38.389Z,30.50
2023-05-05T22:30:09.544Z,30.20
2023-05-05T22:32:38.530Z,30.10
2023-05-05T22:35:08.191Z,29.90
2023-05-05T22:37:36.384Z,30.60
2023-05-05T22:40:05.396Z,30.20
2023-05-05T22:42:33.562Z,30.60
2023-05-05T22:45:02.850Z,30.90
2023-05-05T22:47:30.975Z,30.40
2023-05-05T22:49:58.990Z,30.60
2023-05-05T22:52:28.761Z,30.60
2023-05-05T22:54:56.891Z,30.70
2023-05-05T22:57:25.046Z,30.50
2023-05-05T22:59:53.182Z,30.40
2023-05-05T23:02:22.719Z,30.60
2023-05-05T23:04:51.064Z,30.70
2023-05-05T23:07:19.432Z,30.30
2023-05-05T23:09:47.834Z,30.80
2023-05-05T23:12:15.964Z,30.50
2023-05-05T23:14:43.996Z,31.70
2023-05-05T23:17:12.186Z,30.70
2023-05-05T23:19:41.514Z,31.00
2023-05-05T23:22:09.494Z,30.80
2023-05-05T23:24:37.505Z,30.70
2023-05-05T23:27:05.465Z,30.70
2023-05-05T23:29:33.688Z,30.90
2023-05-05T23:32:01.817Z,30.40
2023-05-05T23:34:29.812Z,31.10
2023-05-05T23:36:59.216Z,31.80
2023-05-05T23:39:27.176Z,30.50
2023-05-05T23:41:55.163Z,30.80
2023-05-05T23:44:23.179Z,31.00
2023-05-05T23:46:51.129Z,30.90
2023-05-05T23:49:19.251Z,30.80
2023-05-05T23:51:47.293Z,31.10
2023-05-05T23:54:16.717Z,31.00
2023-05-05T23:56:47.622Z,31.10
2023-05-05T23:59:15.659Z,31.10
